createdAt,value
2022-11-23T00:00:51.098Z,34.40
2022-11-23T00:03:36.826Z,31.07
2022-11-23T00:06:23.510Z,28.43
2022-11-23T00:09:10.901Z,29.97
2022-11-23T00:11:59.673Z,36.23
2022-11-23T00:14:49.481Z,33.93
2022-11-23T00:17:36.823Z,34.37
2022-11-23T00:20:22.077Z,34.93
2022-11-23T00:23:09.998Z,33.93
2022-11-23T00:25:55.152Z,31.93
2022-11-23T00:28:42.249Z,32.27
2022-11-23T00:31:28.184Z,33.80
2022-11-23T00:34:16.271Z,31.47
2022-11-23T00:37:02.162Z,31.77
2022-11-23T00:39:47.978Z,25.83
2022-11-23T00:42:37.878Z,35.27
2022-11-23T00:45:24.035Z,27.10
2022-11-23T00:48:10.241Z,34.23
2022-11-23T00:50:55.557Z,27.17
2022-11-23T00:53:41.177Z,31.70
2022-11-23T00:56:29.711Z,29.30
2022-11-23T00:59:15.032Z,42.97
2022-11-23T01:02:00.630Z,26.67
2022-11-23T01:04:46.131Z,52.33
2022-11-23T01:07:31.524Z,32.50
2022-11-23T01:10:19.301Z,25.67
2022-11-23T01:13:04.523Z,32.07
2022-11-23T01:15:50.998Z,32.43
2022-11-23T01:18:38.356Z,26.53
2022-11-23T01:21:24.976Z,26.00
2022-11-23T01:24:14.120Z,27.13
2022-11-23T01:27:02.577Z,27.77
2022-11-23T01:29:49.007Z,32.00
2022-11-23T01:32:34.169Z,25.07
2022-11-23T01:35:22.179Z,33.00
2022-11-23T01:38:08.237Z,31.30
2022-11-23T01:40:55.788Z,31.90
2022-11-23T01:43:43.730Z,31.03
2022-11-23T01:46:29.346Z,30.03
2022-11-23T01:49:17.903Z,29.40
2022-11-23T01:52:11.636Z,30.67
2022-11-23T01:55:02.588Z,34.10
2022-11-23T01:57:51.030Z,27.57
2022-11-23T02:00:37.067Z,30.60
2022-11-23T02:03:23.534Z,25.20
2022-11-23T02:06:17.052Z,31.70
2022-11-23T02:09:04.976Z,27.10
2022-11-23T02:11:53.632Z,20.63
2022-11-23T02:14:39.976Z,29.10
2022-11-23T02:17:25.703Z,29.30
2022-11-23T02:20:17.601Z,30.87
2022-11-23T02:23:06.353Z,30.87
2022-11-23T02:26:01.869Z,29.50
2022-11-23T02:29:01.870Z,22.43
2022-11-23T02:31:47.198Z,26.83
2022-11-23T02:34:35.743Z,49.23
2022-11-23T02:37:21.370Z,27.20
2022-11-23T02:40:25.934Z,28.33
2022-11-23T02:43:11.633Z,24.33
2022-11-23T02:46:02.371Z,30.40
2022-11-23T02:48:50.205Z,28.23
2022-11-23T02:51:35.676Z,25.20
2022-11-23T02:54:21.008Z,27.17
2022-11-23T02:57:06.944Z,29.00
2022-11-23T02:59:52.599Z,25.77
2022-11-23T03:02:42.936Z,22.23
2022-11-23T03:05:28.198Z,20.63
2022-11-23T03:08:13.486Z,24.23
2022-11-23T03:11:02.005Z,25.20
2022-11-23T03:13:47.271Z,26.27
2022-11-23T03:16:34.149Z,30.20
2022-11-23T03:19:19.643Z,26.67
2022-11-23T03:22:07.614Z,24.37
2022-11-23T03:24:53.406Z,24.53
2022-11-23T03:27:41.799Z,30.37
2022-11-23T03:30:26.945Z,27.20
2022-11-23T03:33:12.402Z,28.10
2022-11-23T03:35:57.800Z,27.87
2022-11-23T03:38:43.288Z,28.00
2022-11-23T03:41:28.885Z,29.77
2022-11-23T03:44:17.226Z,25.83
2022-11-23T03:47:04.593Z,23.00
2022-11-23T03:49:49.956Z,30.33
2022-11-23T03:52:37.476Z,29.17
2022-11-23T03:55:22.960Z,33.10
2022-11-23T03:58:08.342Z,26.10
2022-11-23T04:00:54.788Z,21.50
2022-11-23T04:03:40.280Z,31.87
2022-11-23T04:06:26.435Z,26.53
2022-11-23T04:09:13.176Z,25.20
2022-11-23T04:11:58.623Z,24.70
2022-11-23T04:14:44.251Z,24.47
2022-11-23T04:17:31.588Z,26.30
2022-11-23T04:20:17.292Z,31.07
2022-11-23T04:23:02.719Z,27.60
2022-11-23T04:25:50.412Z,29.27
2022-11-23T04:28:35.610Z,24.57
2022-11-23T04:31:21.557Z,29.67
2022-11-23T04:34:07.006Z,28.73
2022-11-23T04:36:52.484Z,31.03
2022-11-23T04:39:37.921Z,28.20
2022-11-23T04:42:26.512Z,29.47
2022-11-23T04:45:14.433Z,21.07
2022-11-23T04:47:59.779Z,29.63
2022-11-23T04:50:46.940Z,24.97
2022-11-23T04:53:32.635Z,27.97
2022-11-23T04:56:18.336Z,33.60
2022-11-23T04:59:03.650Z,20.73
2022-11-23T05:01:49.796Z,28.83
2022-11-23T05:04:35.914Z,23.40
2022-11-23T05:07:21.452Z,29.90
2022-11-23T05:10:07.810Z,26.93
2022-11-23T05:12:58.426Z,28.13
2022-11-23T05:15:44.169Z,22.10
2022-11-23T05:18:29.725Z,29.27
2022-11-23T05:21:18.212Z,27.50
2022-11-23T05:24:04.340Z,27.33
2022-11-23T05:26:55.943Z,31.20
2022-11-23T05:29:41.680Z,21.57
2022-11-23T05:32:26.948Z,28.60
2022-11-23T05:35:12.758Z,26.47
2022-11-23T05:37:58.699Z,25.60
2022-11-23T05:40:46.725Z,24.10
2022-11-23T05:43:34.089Z,29.10
2022-11-23T05:46:21.397Z,25.53
2022-11-23T05:49:06.902Z,24.50
2022-11-23T05:51:52.314Z,24.90
2022-11-23T05:54:37.789Z,23.70
2022-11-23T05:57:22.995Z,27.57
2022-11-23T06:00:12.465Z,21.03
2022-11-23T06:03:02.113Z,25.30
2022-11-23T06:05:52.749Z,22.63
2022-11-23T06:08:44.403Z,30.27
2022-11-23T06:11:32.481Z,21.93
2022-11-23T06:14:17.741Z,19.53
2022-11-23T06:17:03.398Z,22.33
2022-11-23T06:19:48.640Z,17.70
2022-11-23T06:22:34.299Z,25.70
2022-11-23T06:25:20.075Z,26.70
2022-11-23T06:28:05.792Z,20.00
2022-11-23T06:30:51.441Z,22.03
2022-11-23T06:33:38.867Z,16.97
2022-11-23T06:36:26.502Z,22.77
2022-11-23T06:39:11.625Z,21.17
2022-11-23T06:42:10.954Z,23.37
2022-11-23T06:45:05.457Z,26.90
2022-11-23T06:47:50.953Z,22.37
2022-11-23T06:50:36.408Z,22.07
2022-11-23T06:53:21.860Z,20.20
2022-11-23T06:56:08.340Z,25.00
2022-11-23T06:58:53.922Z,20.00
2022-11-23T07:01:39.497Z,28.27
2022-11-23T07:04:25.265Z,25.37
2022-11-23T07:07:10.874Z,27.67
2022-11-23T07:09:57.658Z,17.70
2022-11-23T07:12:43.775Z,18.60
2022-11-23T07:15:34.354Z,28.33
2022-11-23T07:18:19.683Z,21.43
2022-11-23T07:21:05.007Z,20.23
2022-11-23T07:23:52.770Z,26.07
2022-11-23T07:26:38.184Z,17.77
2022-11-23T07:29:23.963Z,36.17
2022-11-23T07:32:11.441Z,29.63
2022-11-23T07:34:59.020Z,25.03
2022-11-23T07:37:44.786Z,30.30
2022-11-23T07:40:30.822Z,29.50
2022-11-23T07:43:21.057Z,23.10
2022-11-23T07:46:08.732Z,26.43
2022-11-23T07:48:59.289Z,25.27
2022-11-23T07:51:44.701Z,26.93
2022-11-23T07:54:30.646Z,22.20
2022-11-23T07:57:16.202Z,28.17
2022-11-23T08:00:01.725Z,20.73
2022-11-23T08:03:11.402Z,22.33
2022-11-23T08:05:53.131Z,25.73
2022-11-23T08:08:39.058Z,23.80
2022-11-23T08:11:27.188Z,30.50
2022-11-23T08:14:13.032Z,22.40
2022-11-23T08:17:00.713Z,24.07
2022-11-23T08:19:46.067Z,33.67
2022-11-23T08:22:34.446Z,24.93
2022-11-23T08:25:19.623Z,33.13
2022-11-23T08:28:05.965Z,21.13
2022-11-23T08:30:51.518Z,21.50
2022-11-23T08:33:37.261Z,17.63
2022-11-23T08:36:24.958Z,22.70
2022-11-23T08:39:11.195Z,20.30
2022-11-23T08:41:56.710Z,27.37
2022-11-23T08:44:42.387Z,18.90
2022-11-23T08:47:27.581Z,19.97
2022-11-23T08:50:15.965Z,19.20
2022-11-23T08:53:01.955Z,17.53
2022-11-23T08:55:47.382Z,18.00
2022-11-23T08:58:33.038Z,20.10
2022-11-23T09:01:18.839Z,19.57
2022-11-23T09:04:04.768Z,19.77
2022-11-23T09:06:50.417Z,24.23
2022-11-23T09:09:36.056Z,18.80
2022-11-23T09:12:21.777Z,25.43
2022-11-23T09:15:07.622Z,16.90
2022-11-23T09:17:53.210Z,16.50
2022-11-23T09:20:40.765Z,15.73
2022-11-23T09:23:27.097Z,21.73
2022-11-23T09:26:12.786Z,25.93
2022-11-23T09:28:58.398Z,15.87
2022-11-23T09:31:44.007Z,24.73
2022-11-23T09:34:31.890Z,20.73
2022-11-23T09:37:17.614Z,15.23
2022-11-23T09:40:09.383Z,20.83
2022-11-23T09:43:00.375Z,18.93
2022-11-23T09:45:58.562Z,18.10
2022-11-23T09:48:56.102Z,22.80
2022-11-23T09:51:43.254Z,16.77
2022-11-23T09:54:31.039Z,34.67
2022-11-23T09:57:21.855Z,21.60
2022-11-23T10:00:17.060Z,16.20
2022-11-23T10:03:02.587Z,17.00
2022-11-23T10:06:02.067Z,21.70
2022-11-23T10:09:25.124Z,15.87
2022-11-23T10:12:16.464Z,18.70
2022-11-23T10:15:30.727Z,16.50
2022-11-23T10:18:38.879Z,21.27
2022-11-23T10:21:33.456Z,18.10
2022-11-23T10:24:24.264Z,14.77
2022-11-23T10:27:18.003Z,22.70
2022-11-23T10:30:03.822Z,20.80
2022-11-23T10:33:05.245Z,17.80
2022-11-23T10:35:52.713Z,15.33
2022-11-23T10:38:37.886Z,21.60
2022-11-23T10:41:23.688Z,13.43
2022-11-23T10:44:34.565Z,21.17
2022-11-23T10:47:39.303Z,12.43
2022-11-23T10:50:27.324Z,18.67
2022-11-23T10:53:21.269Z,18.47
2022-11-23T10:56:13.271Z,22.00
2022-11-23T10:59:01.085Z,21.73
2022-11-23T11:02:19.492Z,14.93
2022-11-23T11:05:46.017Z,17.63
2022-11-23T11:08:35.982Z,17.30
2022-11-23T11:11:45.926Z,14.67
2022-11-23T11:14:42.775Z,17.00
2022-11-23T11:17:34.554Z,18.13
2022-11-23T11:20:28.783Z,16.43
2022-11-23T11:23:20.296Z,16.27
2022-11-23T11:26:29.971Z,17.20
2022-11-23T11:29:38.103Z,15.80
2022-11-23T11:32:52.563Z,20.53
2022-11-23T11:35:43.396Z,13.97
2022-11-23T11:38:37.049Z,15.97
2022-11-23T11:41:25.433Z,14.30
2022-11-23T11:44:22.662Z,13.30
2022-11-23T11:47:39.602Z,14.67
2022-11-23T11:50:35.005Z,13.77
2022-11-23T11:53:30.790Z,15.43
2022-11-23T11:56:35.203Z,13.77
2022-11-23T11:59:45.370Z,13.97
2022-11-23T12:02:55.327Z,13.33
2022-11-23T12:05:49.919Z,12.53
2022-11-23T12:08:50.902Z,12.60
2022-11-23T12:11:36.650Z,12.03
2022-11-23T12:14:23.575Z,14.50
2022-11-23T12:17:32.399Z,19.90
2022-11-23T12:20:39.152Z,15.77
2022-11-23T12:23:39.162Z,15.53
2022-11-23T12:26:55.967Z,13.50
2022-11-23T12:30:03.993Z,14.47
2022-11-23T12:33:11.681Z,15.47
2022-11-23T12:36:09.511Z,12.23
2022-11-23T12:38:54.964Z,12.63
2022-11-23T12:41:51.329Z,13.13
2022-11-23T12:45:06.557Z,10.03
2022-11-23T12:48:03.980Z,11.27
2022-11-23T12:50:55.139Z,13.60
2022-11-23T12:54:01.939Z,14.20
2022-11-23T12:57:06.597Z,14.57
2022-11-23T13:00:23.679Z,19.77
2022-11-23T13:03:35.806Z,14.00
2022-11-23T13:06:24.273Z,13.33
2022-11-23T13:09:19.705Z,13.03
2022-11-23T13:12:40.395Z,13.27
2022-11-23T13:16:05.082Z,15.63
2022-11-23T13:19:28.339Z,11.87
2022-11-23T13:22:21.620Z,12.20
2022-11-23T13:25:10.489Z,17.53
2022-11-23T13:28:21.376Z,11.23
2022-11-23T13:31:17.690Z,10.17
2022-11-23T13:34:24.933Z,12.23
2022-11-23T13:37:12.809Z,13.60
2022-11-23T13:40:01.166Z,17.67
2022-11-23T13:42:48.376Z,12.00
2022-11-23T13:45:36.650Z,16.13
2022-11-23T13:51:33.560Z,10.43
2022-11-23T13:54:24.887Z,11.53
2022-11-23T13:57:13.163Z,10.03
2022-11-23T14:00:36.229Z,7.37
2022-11-23T14:03:50.742Z,11.97
2022-11-23T14:06:56.833Z,13.03
2022-11-23T14:09:42.417Z,10.77
2022-11-23T14:12:31.002Z,7.70
2022-11-23T14:15:29.149Z,9.93
2022-11-23T14:18:30.264Z,11.30
2022-11-23T14:21:45.085Z,11.33
2022-11-23T14:24:45.001Z,15.57
2022-11-23T14:27:55.686Z,10.73
2022-11-23T14:31:06.891Z,8.53
2022-11-23T14:34:16.270Z,15.80
2022-11-23T14:37:19.649Z,10.20
2022-11-23T14:40:34.046Z,14.57
2022-11-23T14:43:20.009Z,10.73
2022-11-23T14:46:07.797Z,15.43
2022-11-23T14:49:09.506Z,11.27
2022-11-23T14:51:54.811Z,10.93
2022-11-23T14:54:46.619Z,12.43
2022-11-23T14:57:43.035Z,13.10
2022-11-23T15:00:41.489Z,12.73
2022-11-23T15:06:45.700Z,10.00
2022-11-23T15:09:40.985Z,10.90
2022-11-23T15:12:28.647Z,17.20
2022-11-23T15:15:19.828Z,13.40
2022-11-23T15:18:05.231Z,11.37
2022-11-23T15:20:52.775Z,10.20
2022-11-23T15:23:49.335Z,16.00
2022-11-23T15:26:50.493Z,11.87
2022-11-23T15:29:38.673Z,14.40
2022-11-23T15:32:35.558Z,16.03
2022-11-23T15:35:26.341Z,14.10
2022-11-23T15:38:23.429Z,14.10
2022-11-23T15:41:09.793Z,11.50
2022-11-23T15:43:57.462Z,16.50
2022-11-23T15:46:43.820Z,22.27
2022-11-23T15:49:32.265Z,15.00
2022-11-23T15:52:21.672Z,17.33
2022-11-23T15:55:13.020Z,13.63
2022-11-23T15:58:00.254Z,14.63
2022-11-23T16:01:06.999Z,13.73
2022-11-23T16:04:02.214Z,12.63
2022-11-23T16:06:50.565Z,16.53
2022-11-23T16:09:53.944Z,13.97
2022-11-23T16:12:51.624Z,13.47
2022-11-23T16:15:43.520Z,11.10
2022-11-23T16:18:32.746Z,17.63
2022-11-23T16:21:20.115Z,14.30
2022-11-23T16:24:22.091Z,20.30
2022-11-23T16:27:16.704Z,18.30
2022-11-23T16:30:04.686Z,13.70
2022-11-23T16:32:54.693Z,12.43
2022-11-23T16:35:40.052Z,15.03
2022-11-23T16:38:25.514Z,14.40
2022-11-23T16:41:11.105Z,16.87
2022-11-23T16:43:56.786Z,16.67
2022-11-23T16:46:47.412Z,17.00
2022-11-23T16:49:33.181Z,17.93
2022-11-23T16:52:19.994Z,19.67
2022-11-23T16:55:08.027Z,14.83
2022-11-23T16:57:53.921Z,14.23
2022-11-23T17:00:39.911Z,17.37
2022-11-23T17:03:27.419Z,18.00
2022-11-23T17:06:15.532Z,20.93
2022-11-23T17:09:07.906Z,17.37
2022-11-23T17:11:54.010Z,21.50
2022-11-23T17:14:42.667Z,18.63
2022-11-23T17:17:36.023Z,21.37
2022-11-23T17:20:21.293Z,18.70
2022-11-23T17:23:06.695Z,16.57
2022-11-23T17:25:52.147Z,21.00
2022-11-23T17:28:37.747Z,20.33
2022-11-23T17:31:23.402Z,22.33
2022-11-23T17:34:09.211Z,20.47
2022-11-23T17:36:57.000Z,24.43
2022-11-23T17:39:45.061Z,25.00
2022-11-23T17:42:30.545Z,26.80
2022-11-23T17:45:16.107Z,21.23
2022-11-23T17:48:03.712Z,21.03
2022-11-23T17:50:50.051Z,24.20
2022-11-23T17:53:38.265Z,17.27
2022-11-23T17:56:25.811Z,26.17
2022-11-23T17:59:11.165Z,38.80
2022-11-23T18:01:57.828Z,20.03
2022-11-23T18:04:43.469Z,27.20
2022-11-23T18:07:29.091Z,23.60
2022-11-23T18:10:14.884Z,21.10
2022-11-23T18:13:00.224Z,21.60
2022-11-23T18:15:46.451Z,30.83
2022-11-23T18:18:32.212Z,27.37
2022-11-23T18:21:18.487Z,24.10
2022-11-23T18:24:05.050Z,27.67
2022-11-23T18:26:52.675Z,32.83
2022-11-23T18:29:40.253Z,24.33
2022-11-23T18:32:25.888Z,34.53
2022-11-23T18:35:11.372Z,27.13
2022-11-23T18:37:57.390Z,25.50
2022-11-23T18:40:45.161Z,24.37
2022-11-23T18:43:30.885Z,26.40
2022-11-23T18:46:19.520Z,29.57
2022-11-23T18:49:05.728Z,29.47
2022-11-23T18:51:53.195Z,30.87
2022-11-23T18:54:38.391Z,27.63
2022-11-23T18:57:28.377Z,33.30
2022-11-23T19:00:15.908Z,27.03
2022-11-23T19:03:02.539Z,28.00
2022-11-23T19:05:47.790Z,33.90
2022-11-23T19:08:33.631Z,22.77
2022-11-23T19:11:24.169Z,27.83
2022-11-23T19:14:10.766Z,31.73
2022-11-23T19:16:56.885Z,35.27
2022-11-23T19:19:44.501Z,27.53
2022-11-23T19:22:31.921Z,25.53
2022-11-23T19:25:18.329Z,25.87
2022-11-23T19:28:03.528Z,30.80
2022-11-23T19:30:49.111Z,27.60
2022-11-23T19:33:37.164Z,32.87
2022-11-23T19:36:24.294Z,31.23
2022-11-23T19:39:10.291Z,27.13
2022-11-23T19:41:56.629Z,30.40
2022-11-23T19:44:41.804Z,27.73
2022-11-23T19:47:29.605Z,28.83
2022-11-23T19:50:15.227Z,30.20
2022-11-23T19:53:16.284Z,26.73
2022-11-23T19:56:16.963Z,23.83
2022-11-23T19:59:02.742Z,26.27
2022-11-23T20:01:48.515Z,32.57
2022-11-23T20:04:37.160Z,30.47
2022-11-23T20:07:25.280Z,26.67
2022-11-23T20:10:10.755Z,27.07
2022-11-23T20:12:55.892Z,32.93
2022-11-23T20:15:48.419Z,26.93
2022-11-23T20:18:34.176Z,26.40
2022-11-23T20:21:20.042Z,28.97
2022-11-23T20:24:08.521Z,31.20
2022-11-23T20:26:53.974Z,34.30
2022-11-23T20:29:40.363Z,29.00
2022-11-23T20:32:28.207Z,29.40
2022-11-23T20:35:16.417Z,25.27
2022-11-23T20:38:02.438Z,28.47
2022-11-23T20:40:50.573Z,30.63
2022-11-23T20:43:38.199Z,35.97
2022-11-23T20:46:53.571Z,30.87
2022-11-23T20:49:33.140Z,37.13
2022-11-23T20:52:20.691Z,36.77
2022-11-23T20:55:08.815Z,31.03
2022-11-23T20:57:57.318Z,35.53
2022-11-23T21:00:48.677Z,34.30
2022-11-23T21:03:41.203Z,34.70
2022-11-23T21:06:28.440Z,33.67
2022-11-23T21:09:17.150Z,35.63
2022-11-23T21:12:21.003Z,36.50
2022-11-23T21:15:07.267Z,37.17
2022-11-23T21:17:54.985Z,34.73
2022-11-23T21:20:43.382Z,37.00
2022-11-23T21:23:34.154Z,37.70
2022-11-23T21:26:19.704Z,39.67
2022-11-23T21:29:11.481Z,34.57
2022-11-23T21:31:57.198Z,34.33
2022-11-23T21:34:45.622Z,40.97
2022-11-23T21:37:31.513Z,41.43
2022-11-23T21:40:17.738Z,36.43
2022-11-23T21:43:05.565Z,42.23
2022-11-23T21:46:05.828Z,44.50
2022-11-23T21:48:56.382Z,37.30
2022-11-23T21:51:45.662Z,42.27
2022-11-23T21:54:32.507Z,38.17
2022-11-23T21:57:17.954Z,39.50
2022-11-23T22:00:10.011Z,35.73
2022-11-23T22:02:55.596Z,35.37
2022-11-23T22:05:41.147Z,50.70
2022-11-23T22:08:29.294Z,51.60
2022-11-23T22:11:26.497Z,44.83
2022-11-23T22:14:14.444Z,46.23
2022-11-23T22:17:02.232Z,41.80
2022-11-23T22:19:48.569Z,48.83
2022-11-23T22:22:33.883Z,44.80
2022-11-23T22:25:19.997Z,53.10
2022-11-23T22:28:05.630Z,49.77
2022-11-23T22:30:54.703Z,43.47
2022-11-23T22:33:40.531Z,47.43
2022-11-23T22:36:27.807Z,50.70
2022-11-23T22:39:13.355Z,47.10
2022-11-23T22:41:59.033Z,47.27
2022-11-23T22:44:47.171Z,44.67
2022-11-23T22:47:35.121Z,67.90
2022-11-23T22:50:20.895Z,46.63
2022-11-23T22:53:06.219Z,65.40
2022-11-23T22:55:52.185Z,65.37
2022-11-23T22:58:37.473Z,62.33
2022-11-23T23:01:28.736Z,89.20
2022-11-23T23:04:14.645Z,45.57
2022-11-23T23:07:04.595Z,55.20
2022-11-23T23:09:49.843Z,44.20
2022-11-23T23:12:35.378Z,70.27
2022-11-23T23:15:21.654Z,51.50
2022-11-23T23:18:08.209Z,52.83
2022-11-23T23:21:04.410Z,50.20
2022-11-23T23:23:52.026Z,50.60
2022-11-23T23:26:37.701Z,42.23
2022-11-23T23:29:23.304Z,79.50
2022-11-23T23:32:09.098Z,74.83
2022-11-23T23:34:54.668Z,47.77
2022-11-23T23:37:40.842Z,46.90
2022-11-23T23:40:28.654Z,67.67
2022-11-23T23:43:14.644Z,68.93
2022-11-23T23:46:02.029Z,51.67
2022-11-23T23:48:53.168Z,40.17
2022-11-23T23:51:39.454Z,49.07
2022-11-23T23:54:25.344Z,74.70
2022-11-23T23:57:10.776Z,42.10
2022-11-23T23:59:58.717Z,49.03
